Time;durP1;ratioP1;P1;durP2;ratioP2;P2;SDS_P1;SDS_P2;PMS_P1;PMS_P2;Temp;Humidity;BMP_temperature;BMP_pressure;BME280_temperature;BME280_humidity;BME280_pressure;Samples;Min_cycle;Max_cycle;Signal;HPM_P1;HPM_P2
2023/07/20 00:01:22;;;;;;;0.20;0.20;;;16.50;99.90;;;;;;5088885;28;20071;-81
2023/07/20 00:03:54;;;;;;;0.17;0.17;;;16.50;99.90;;;;;;5083831;28;20040;-81
2023/07/20 00:06:27;;;;;;;0.10;0.10;;;16.50;99.90;;;;;;5085864;28;20507;-81
2023/07/20 00:08:56;;;;;;;0.10;0.10;;;16.50;99.90;;;;;;5089692;28;20040;-82
2023/07/20 00:11:27;;;;;;;0.10;0.10;;;16.40;99.90;;;;;;5083549;28;20047;-82
2023/07/20 00:13:52;;;;;;;0.20;0.20;;;16.40;99.90;;;;;;5086791;28;20051;-81
2023/07/20 00:16:18;;;;;;;0.20;0.20;;;16.40;99.90;;;;;;5088819;28;20380;-81
2023/07/20 00:18:44;;;;;;;0.10;0.10;;;16.40;99.90;;;;;;5085367;28;20122;-81
2023/07/20 00:21:10;;;;;;;0.13;0.13;;;16.40;99.90;;;;;;5089367;28;20047;-81
2023/07/20 00:23:36;;;;;;;0.10;0.10;;;16.40;99.90;;;;;;5081936;28;20416;-82
2023/07/20 00:26:02;;;;;;;0.20;0.20;;;16.40;99.90;;;;;;5086374;28;20157;-81
2023/07/20 00:28:27;;;;;;;0.20;0.20;;;16.40;99.90;;;;;;5084374;28;20127;-82
2023/07/20 00:30:53;;;;;;;0.13;0.13;;;16.30;99.90;;;;;;5086608;28;20613;-81
2023/07/20 00:33:19;;;;;;;0.10;0.10;;;16.30;99.90;;;;;;5082538;28;20044;-82
2023/07/20 00:35:44;;;;;;;0.20;0.20;;;16.30;99.90;;;;;;5087697;28;20132;-81
2023/07/20 00:38:11;;;;;;;0.15;0.15;;;16.30;99.90;;;;;;5086079;28;20044;-81
2023/07/20 00:40:40;;;;;;;0.20;0.20;;;16.30;99.90;;;;;;5087437;28;20051;-82
2023/07/20 00:43:07;;;;;;;0.20;0.20;;;16.30;99.90;;;;;;5088553;28;20438;-81
2023/07/20 00:45:34;;;;;;;0.10;0.10;;;16.30;99.90;;;;;;5088695;28;20411;-81
2023/07/20 00:48:01;;;;;;;0.10;0.10;;;16.20;99.90;;;;;;5086848;28;20055;-81
2023/07/20 00:50:28;;;;;;;0.20;0.20;;;16.20;99.90;;;;;;5081326;28;20062;-81
2023/07/20 00:52:56;;;;;;;0.20;0.20;;;16.20;99.90;;;;;;5089129;28;20608;-81
2023/07/20 00:55:23;;;;;;;0.20;0.20;;;16.10;99.90;;;;;;5084184;28;20097;-82
2023/07/20 00:57:50;;;;;;;0.10;0.10;;;16.10;99.90;;;;;;5085098;28;20487;-81
2023/07/20 01:00:16;;;;;;;0.20;0.20;;;16.10;99.90;;;;;;5085786;28;20491;-82
2023/07/20 01:02:42;;;;;;;0.20;0.20;;;16.00;99.90;;;;;;5084889;28;20120;-81
2023/07/20 01:05:08;;;;;;;0.10;0.10;;;16.00;99.90;;;;;;5084819;28;20422;-81
2023/07/20 01:07:43;;;;;;;0.10;0.10;;;15.90;99.90;;;;;;5086350;28;20044;-81
2023/07/20 01:10:43;;;;;;;0.20;0.20;;;15.90;99.90;;;;;;5077467;28;20132;-81
2023/07/20 01:13:10;;;;;;;0.10;0.10;;;15.90;99.90;;;;;;5086478;28;20043;-81
2023/07/20 01:15:36;;;;;;;0.15;0.15;;;15.80;99.90;;;;;;5093518;28;20148;-81
2023/07/20 01:18:04;;;;;;;0.20;0.20;;;15.80;99.90;;;;;;5089175;28;20069;-81
2023/07/20 01:20:32;;;;;;;0.20;0.20;;;15.80;99.90;;;;;;5089083;28;20056;-81
2023/07/20 01:23:16;;;;;;;0.10;0.10;;;15.70;99.90;;;;;;5085211;28;20115;-81
2023/07/20 01:25:54;;;;;;;0.20;0.20;;;15.60;99.90;;;;;;5084744;28;20087;-81
2023/07/20 01:28:35;;;;;;;0.20;0.20;;;15.60;99.90;;;;;;5087400;28;20368;-80
2023/07/20 01:31:22;;;;;;;0.10;0.10;;;15.60;99.90;;;;;;5080862;28;20048;-82
2023/07/20 01:33:50;;;;;;;0.10;0.10;;;15.50;99.90;;;;;;5083233;28;20070;-81
2023/07/20 01:36:18;;;;;;;0.20;0.20;;;15.50;99.90;;;;;;5083697;28;20036;-81
2023/07/20 01:38:45;;;;;;;0.20;0.20;;;15.50;99.90;;;;;;5087084;28;20055;-82
2023/07/20 01:41:11;;;;;;;0.10;0.10;;;15.40;99.90;;;;;;5082431;28;20123;-82
2023/07/20 01:43:36;;;;;;;0.20;0.20;;;15.40;99.90;;;;;;5084900;28;20138;-82
2023/07/20 01:46:02;;;;;;;0.10;0.10;;;15.30;99.90;;;;;;5084554;28;20123;-81
2023/07/20 01:48:28;;;;;;;0.10;0.10;;;15.30;99.90;;;;;;5091040;28;20063;-81
2023/07/20 01:50:54;;;;;;;0.20;0.20;;;15.20;99.90;;;;;;5107401;27;20041;-82
2023/07/20 01:53:20;;;;;;;0.20;0.20;;;15.20;99.90;;;;;;5092068;28;20028;-82
2023/07/20 01:55:46;;;;;;;0.20;0.20;;;15.20;99.90;;;;;;5088940;28;20063;-82
2023/07/20 01:58:12;;;;;;;0.30;0.30;;;15.10;99.90;;;;;;5086016;28;20098;-83
2023/07/20 02:00:38;;;;;;;0.20;0.20;;;15.10;99.90;;;;;;5087626;28;20037;-82
2023/07/20 02:03:04;;;;;;;0.20;0.20;;;15.10;99.90;;;;;;5083977;28;20067;-81
2023/07/20 02:05:30;;;;;;;0.20;0.20;;;15.10;99.90;;;;;;5085989;28;20082;-81
2023/07/20 02:07:55;;;;;;;0.20;0.20;;;15.00;99.90;;;;;;5088184;28;20477;-82
2023/07/20 02:10:21;;;;;;;0.20;0.20;;;15.00;99.90;;;;;;5091699;28;20048;-82
2023/07/20 02:12:47;;;;;;;0.20;0.20;;;15.00;99.90;;;;;;5090798;28;20419;-81
2023/07/20 02:15:16;;;;;;;0.20;0.20;;;14.90;99.90;;;;;;5091170;28;20553;-81
2023/07/20 02:17:42;;;;;;;0.15;0.15;;;14.90;99.90;;;;;;5091373;28;20487;-80
2023/07/20 02:20:12;;;;;;;0.20;0.20;;;14.80;99.90;;;;;;5092712;28;20100;-81
2023/07/20 02:22:38;;;;;;;0.20;0.20;;;14.80;99.90;;;;;;5086454;28;20071;-81
2023/07/20 02:25:05;;;;;;;0.17;0.17;;;14.80;99.90;;;;;;5089771;28;20701;-81
2023/07/20 02:27:31;;;;;;;0.20;0.20;;;14.80;99.90;;;;;;5116290;27;20052;-81
2023/07/20 02:29:56;;;;;;;0.20;0.20;;;14.80;99.90;;;;;;5082961;28;20574;-81
2023/07/20 02:32:22;;;;;;;0.15;0.15;;;14.70;99.90;;;;;;5084240;28;20571;-81
2023/07/20 02:34:48;;;;;;;0.15;0.15;;;14.70;99.90;;;;;;5087749;28;20527;-81
2023/07/20 02:37:14;;;;;;;0.20;0.20;;;14.70;99.90;;;;;;5089759;28;20071;-81
2023/07/20 02:39:39;;;;;;;0.10;0.10;;;14.70;99.90;;;;;;5090576;28;20068;-82
2023/07/20 02:42:06;;;;;;;0.20;0.20;;;14.60;99.90;;;;;;5092906;28;20543;-82
2023/07/20 02:44:31;;;;;;;0.10;0.10;;;14.60;99.90;;;;;;5087235;28;20121;-82
2023/07/20 02:46:57;;;;;;;0.10;0.10;;;14.60;99.90;;;;;;5088096;28;20122;-82
2023/07/20 02:49:23;;;;;;;0.10;0.10;;;14.50;99.90;;;;;;5085680;28;20044;-82
2023/07/20 02:51:48;;;;;;;0.20;0.20;;;14.50;99.90;;;;;;5089628;28;20132;-81
2023/07/20 02:54:15;;;;;;;0.20;0.20;;;14.50;99.90;;;;;;5088020;28;20048;-81
2023/07/20 02:56:40;;;;;;;0.20;0.20;;;14.50;99.90;;;;;;5088537;28;20073;-83
2023/07/20 02:59:06;;;;;;;0.10;0.10;;;14.40;99.90;;;;;;5087214;28;20235;-82
2023/07/20 03:01:32;;;;;;;0.10;0.10;;;14.40;99.90;;;;;;5088200;28;20044;-82
2023/07/20 03:03:58;;;;;;;0.20;0.20;;;14.40;99.90;;;;;;5087699;28;20082;-82
2023/07/20 03:06:23;;;;;;;0.20;0.20;;;14.30;99.90;;;;;;5088003;28;20067;-82
2023/07/20 03:08:51;;;;;;;0.10;0.10;;;14.30;99.90;;;;;;5090128;28;20476;-81
2023/07/20 03:11:19;;;;;;;0.10;0.10;;;14.30;99.90;;;;;;5087383;28;20058;-81
2023/07/20 03:13:45;;;;;;;0.20;0.20;;;14.30;99.90;;;;;;5090146;28;20563;-81
2023/07/20 03:16:15;;;;;;;0.20;0.20;;;14.30;99.90;;;;;;5120231;27;20147;-82
2023/07/20 03:18:44;;;;;;;0.13;0.13;;;14.30;99.90;;;;;;5088239;28;20040;-81
2023/07/20 03:21:13;;;;;;;0.20;0.20;;;14.20;99.90;;;;;;5090154;28;20101;-82
2023/07/20 03:23:40;;;;;;;0.17;0.17;;;14.20;99.90;;;;;;5084546;28;20652;-82
2023/07/20 03:26:08;;;;;;;0.10;0.10;;;14.20;99.90;;;;;;5082966;28;20044;-81
2023/07/20 03:28:35;;;;;;;0.20;0.20;;;14.20;99.90;;;;;;5081669;28;20048;-82
2023/07/20 03:31:00;;;;;;;0.10;0.10;;;14.20;99.90;;;;;;5089322;28;20048;-82
2023/07/20 03:33:29;;;;;;;0.20;0.20;;;14.30;99.90;;;;;;5090078;28;20040;-81
2023/07/20 03:35:55;;;;;;;0.20;0.20;;;14.10;99.90;;;;;;5088440;28;20055;-82
2023/07/20 03:38:22;;;;;;;0.17;0.17;;;14.10;99.90;;;;;;5089015;28;20068;-83
2023/07/20 03:40:58;;;;;;;0.10;0.10;;;14.10;99.90;;;;;;5090141;28;20036;-82
2023/07/20 03:43:25;;;;;;;0.10;0.10;;;14.10;99.90;;;;;;5086808;28;20051;-82
2023/07/20 03:45:52;;;;;;;0.20;0.20;;;14.10;99.90;;;;;;5088913;28;20047;-81
2023/07/20 03:48:20;;;;;;;0.13;0.13;;;14.10;99.90;;;;;;5090181;28;20039;-81
2023/07/20 03:50:47;;;;;;;0.20;0.20;;;14.10;99.90;;;;;;5087136;28;20044;-82
2023/07/20 03:53:14;;;;;;;0.20;0.20;;;14.00;99.90;;;;;;5090420;28;20115;-81
2023/07/20 03:55:41;;;;;;;0.20;0.20;;;14.00;99.90;;;;;;5086524;28;20551;-81
2023/07/20 03:58:07;;;;;;;0.20;0.20;;;14.00;99.90;;;;;;5089558;28;20071;-82
2023/07/20 04:00:34;;;;;;;0.17;0.17;;;14.00;99.90;;;;;;5083244;28;20527;-82
2023/07/20 04:03:00;;;;;;;0.20;0.20;;;14.10;99.90;;;;;;5087597;28;20082;-82
2023/07/20 04:05:26;;;;;;;0.20;0.20;;;14.10;99.90;;;;;;5082290;28;20036;-82
2023/07/20 04:07:52;;;;;;;0.20;0.20;;;14.00;99.90;;;;;;5078622;28;20047;-82
2023/07/20 04:10:18;;;;;;;0.10;0.10;;;13.90;99.90;;;;;;5087638;28;20044;-82
2023/07/20 04:12:46;;;;;;;0.15;0.15;;;14.00;99.90;;;;;;5087408;28;20036;-81
2023/07/20 04:15:13;;;;;;;0.20;0.20;;;14.00;99.90;;;;;;5085066;28;20052;-81
2023/07/20 04:17:40;;;;;;;0.10;0.10;;;14.00;99.90;;;;;;5088762;28;20434;-82
2023/07/20 04:20:07;;;;;;;0.20;0.20;;;14.00;99.90;;;;;;5089647;28;20058;-82
2023/07/20 04:22:32;;;;;;;0.20;0.20;;;14.00;99.90;;;;;;5088809;28;20074;-82
2023/07/20 04:24:58;;;;;;;0.10;0.10;;;14.00;99.90;;;;;;5083170;28;20136;-82
2023/07/20 04:27:24;;;;;;;0.20;0.20;;;14.00;99.90;;;;;;5089045;28;20052;-82
2023/07/20 04:29:49;;;;;;;0.20;0.20;;;14.00;99.90;;;;;;5080315;28;20149;-82
2023/07/20 04:32:15;;;;;;;0.20;0.20;;;14.10;99.90;;;;;;5088098;28;20048;-82
2023/07/20 04:34:41;;;;;;;0.17;0.17;;;14.10;99.90;;;;;;5084911;28;20644;-82
2023/07/20 04:37:06;;;;;;;0.10;0.10;;;14.10;99.90;;;;;;5117396;27;20137;-82
2023/07/20 04:39:32;;;;;;;0.10;0.10;;;14.10;99.90;;;;;;5092722;28;20109;-82
2023/07/20 04:41:58;;;;;;;0.20;0.20;;;14.10;99.90;;;;;;5088645;28;20044;-81
2023/07/20 04:44:24;;;;;;;0.13;0.13;;;14.20;99.90;;;;;;5092099;28;20115;-83
2023/07/20 04:46:50;;;;;;;0.20;0.20;;;14.20;99.90;;;;;;5085461;28;20039;-82
2023/07/20 04:49:15;;;;;;;0.10;0.10;;;14.30;99.90;;;;;;5088912;28;20579;-81
2023/07/20 04:51:41;;;;;;;0.20;0.20;;;14.30;99.90;;;;;;5087038;28;20032;-82
2023/07/20 04:54:07;;;;;;;0.20;0.20;;;14.30;99.90;;;;;;5088362;28;20063;-82
2023/07/20 04:56:33;;;;;;;0.15;0.15;;;14.40;99.90;;;;;;5089620;28;20047;-82
2023/07/20 04:58:59;;;;;;;0.10;0.10;;;14.50;99.90;;;;;;5088920;28;20448;-82
2023/07/20 05:01:26;;;;;;;0.10;0.10;;;14.50;99.90;;;;;;5086878;28;20039;-82
2023/07/20 05:03:52;;;;;;;0.20;0.20;;;14.50;99.90;;;;;;5112067;27;20079;-82
2023/07/20 05:06:18;;;;;;;0.20;0.20;;;14.60;99.90;;;;;;5082916;28;20567;-83
2023/07/20 05:08:44;;;;;;;0.10;0.10;;;14.60;99.90;;;;;;5087796;28;20134;-83
2023/07/20 05:11:10;;;;;;;0.20;0.20;;;14.60;99.90;;;;;;5088845;28;20458;-82
2023/07/20 05:13:36;;;;;;;0.10;0.10;;;14.70;99.90;;;;;;5087646;28;20791;-83
2023/07/20 05:16:02;;;;;;;0.20;0.20;;;14.70;99.90;;;;;;5085600;28;20438;-82
2023/07/20 05:18:28;;;;;;;0.10;0.10;;;14.70;99.90;;;;;;5086536;28;20047;-82
2023/07/20 05:20:54;;;;;;;0.15;0.15;;;14.80;99.90;;;;;;5112415;27;20040;-83
2023/07/20 05:23:21;;;;;;;0.20;0.20;;;14.80;99.90;;;;;;5104891;28;20044;-82
2023/07/20 05:25:47;;;;;;;0.10;0.10;;;14.90;99.90;;;;;;5082063;28;20044;-82
2023/07/20 05:28:13;;;;;;;0.20;0.20;;;14.90;99.90;;;;;;5082453;28;20044;-83
2023/07/20 05:30:40;;;;;;;0.20;0.20;;;14.90;99.90;;;;;;5084278;28;20047;-82
2023/07/20 05:33:05;;;;;;;0.10;0.10;;;15.00;99.90;;;;;;5089511;28;20072;-82
2023/07/20 05:35:31;;;;;;;0.20;0.20;;;15.00;99.90;;;;;;5088681;28;20082;-82
2023/07/20 05:37:57;;;;;;;0.20;0.20;;;15.00;99.90;;;;;;5088611;28;20048;-82
2023/07/20 05:40:22;;;;;;;0.20;0.20;;;15.10;99.90;;;;;;5087321;28;20403;-82
2023/07/20 05:42:51;;;;;;;0.13;0.13;;;15.10;99.90;;;;;;5079370;28;20032;-83
2023/07/20 05:45:18;;;;;;;0.20;0.20;;;15.20;99.90;;;;;;5091487;28;20134;-83
2023/07/20 05:47:43;;;;;;;0.20;0.20;;;15.20;99.90;;;;;;5079774;28;20077;-82
2023/07/20 05:50:10;;;;;;;0.10;0.10;;;15.20;99.90;;;;;;5081767;28;20048;-83
2023/07/20 05:52:36;;;;;;;0.20;0.20;;;15.30;99.90;;;;;;5082079;28;20380;-83
2023/07/20 05:55:03;;;;;;;0.20;0.20;;;15.30;99.90;;;;;;5088263;28;20055;-82
2023/07/20 05:57:28;;;;;;;0.20;0.20;;;15.40;99.90;;;;;;5089934;28;20040;-83
2023/07/20 05:59:54;;;;;;;0.20;0.20;;;15.40;99.90;;;;;;5079297;28;20043;-83
2023/07/20 06:02:20;;;;;;;0.10;0.10;;;15.50;99.90;;;;;;5077340;28;20075;-83
2023/07/20 06:04:45;;;;;;;0.10;0.10;;;15.50;99.90;;;;;;5088374;28;20064;-82
2023/07/20 06:07:11;;;;;;;0.20;0.20;;;15.50;99.90;;;;;;5086625;28;20048;-83
2023/07/20 06:09:37;;;;;;;0.10;0.10;;;15.60;99.90;;;;;;5085791;28;20040;-82
2023/07/20 06:12:03;;;;;;;0.20;0.20;;;15.70;99.90;;;;;;5086283;28;20040;-85
2023/07/20 06:14:28;;;;;;;0.20;0.20;;;15.70;99.90;;;;;;5081825;28;20101;-85
2023/07/20 06:16:54;;;;;;;0.20;0.20;;;15.80;99.90;;;;;;5088390;28;20044;-86
2023/07/20 06:19:22;;;;;;;0.20;0.20;;;15.80;99.90;;;;;;5090424;28;20127;-85
2023/07/20 06:21:49;;;;;;;0.20;0.20;;;15.90;99.90;;;;;;5085840;28;20097;-85
2023/07/20 06:24:15;;;;;;;0.17;0.17;;;15.90;99.90;;;;;;5088660;28;20492;-85
2023/07/20 06:26:41;;;;;;;0.20;0.20;;;16.00;99.90;;;;;;5088463;28;20036;-86
2023/07/20 06:29:07;;;;;;;0.10;0.10;;;16.00;99.90;;;;;;5085086;28;20130;-84
2023/07/20 06:31:34;;;;;;;0.15;0.15;;;16.10;99.90;;;;;;5084958;28;20502;-85
2023/07/20 06:34:00;;;;;;;0.20;0.20;;;16.10;99.90;;;;;;5088864;28;20044;-85
2023/07/20 06:36:26;;;;;;;0.20;0.20;;;16.10;99.90;;;;;;5092951;28;20044;-85
2023/07/20 06:38:52;;;;;;;0.20;0.20;;;16.20;99.90;;;;;;5097333;28;20475;-82
2023/07/20 06:41:19;;;;;;;0.20;0.20;;;16.20;99.90;;;;;;5092684;28;20052;-85
2023/07/20 06:43:45;;;;;;;0.20;0.20;;;16.30;99.90;;;;;;5090868;28;20395;-83
2023/07/20 06:46:11;;;;;;;0.20;0.20;;;16.30;99.90;;;;;;5089268;28;20028;-85
2023/07/20 06:48:36;;;;;;;0.17;0.17;;;16.40;99.90;;;;;;5082587;28;20048;-81
2023/07/20 06:51:05;;;;;;;0.20;0.20;;;16.50;99.90;;;;;;5085049;28;20123;-83
2023/07/20 06:53:31;;;;;;;0.20;0.20;;;16.50;99.90;;;;;;5081982;28;20059;-81
2023/07/20 06:55:57;;;;;;;0.20;0.20;;;16.50;99.90;;;;;;5091917;28;20044;-83
2023/07/20 06:58:25;;;;;;;0.10;0.10;;;16.50;99.90;;;;;;5084379;28;20036;-82
2023/07/20 07:00:51;;;;;;;0.10;0.10;;;16.60;99.90;;;;;;5085270;28;20048;-81
2023/07/20 07:03:17;;;;;;;0.20;0.20;;;16.60;99.90;;;;;;5116948;27;20093;-82
2023/07/20 07:05:45;;;;;;;0.20;0.20;;;16.70;99.90;;;;;;5078344;28;20071;-82
2023/07/20 07:08:11;;;;;;;0.20;0.20;;;16.80;99.90;;;;;;5079347;28;20071;-82
2023/07/20 07:10:37;;;;;;;0.20;0.20;;;16.80;99.90;;;;;;5080924;28;20043;-80
2023/07/20 07:13:03;;;;;;;0.10;0.10;;;16.90;99.90;;;;;;5082142;28;21288;-82
2023/07/20 07:15:29;;;;;;;0.20;0.20;;;17.00;99.90;;;;;;5090875;28;20044;-81
2023/07/20 07:17:56;;;;;;;0.20;0.20;;;17.00;99.90;;;;;;5085680;28;20172;-82
2023/07/20 07:20:23;;;;;;;0.20;0.20;;;17.10;99.90;;;;;;5088795;28;20792;-82
2023/07/20 07:22:51;;;;;;;0.20;0.20;;;17.10;99.90;;;;;;5092411;28;20298;-82
2023/07/20 07:25:17;;;;;;;0.20;0.20;;;17.20;99.90;;;;;;5076792;28;20052;-81
2023/07/20 07:27:43;;;;;;;0.10;0.10;;;17.20;99.90;;;;;;5085564;28;20464;-81
2023/07/20 07:30:09;;;;;;;0.20;0.20;;;17.30;99.90;;;;;;5088106;28;20723;-82
2023/07/20 07:32:35;;;;;;;0.10;0.10;;;17.30;99.90;;;;;;5087483;28;20734;-80
2023/07/20 07:35:00;;;;;;;0.10;0.10;;;17.40;99.90;;;;;;5079190;28;20052;-81
2023/07/20 07:37:26;;;;;;;0.20;0.20;;;17.50;99.90;;;;;;5071748;28;20040;-81
2023/07/20 07:39:52;;;;;;;0.20;0.20;;;17.60;99.90;;;;;;5087757;28;20032;-81
2023/07/20 07:42:18;;;;;;;0.15;0.15;;;17.70;99.90;;;;;;5085512;28;20380;-80
2023/07/20 07:44:44;;;;;;;0.17;0.17;;;17.80;99.90;;;;;;5087233;28;20128;-81
2023/07/20 07:47:10;;;;;;;0.10;0.10;;;17.90;99.90;;;;;;5090792;28;20495;-79
2023/07/20 07:49:36;;;;;;;0.20;0.20;;;17.90;99.90;;;;;;5079396;28;20060;-80
2023/07/20 07:52:02;;;;;;;0.20;0.20;;;18.00;99.90;;;;;;5078451;28;20041;-80
2023/07/20 07:54:29;;;;;;;0.20;0.20;;;17.90;99.90;;;;;;5087100;28;20031;-81
2023/07/20 07:56:55;;;;;;;0.20;0.20;;;17.90;99.90;;;;;;5087288;28;20040;-80
2023/07/20 07:59:20;;;;;;;0.20;0.20;;;17.90;99.90;;;;;;5084957;28;20054;-82
2023/07/20 08:01:46;;;;;;;0.20;0.20;;;17.90;99.90;;;;;;5076845;28;20055;-80
2023/07/20 08:04:12;;;;;;;0.38;0.30;;;17.80;99.90;;;;;;5076608;28;20048;-82
2023/07/20 08:06:38;;;;;;;0.10;0.10;;;17.80;99.90;;;;;;5117415;27;20040;-81
2023/07/20 08:09:04;;;;;;;0.20;0.20;;;17.90;99.90;;;;;;5081402;28;20484;-82
2023/07/20 08:11:32;;;;;;;0.15;0.15;;;17.90;99.90;;;;;;5107995;27;20052;-80
2023/07/20 08:13:59;;;;;;;0.10;0.10;;;18.00;99.90;;;;;;5079540;28;20454;-80
2023/07/20 08:16:25;;;;;;;0.13;0.13;;;18.10;99.90;;;;;;5079157;28;20055;-82
2023/07/20 08:18:51;;;;;;;0.20;0.20;;;18.10;99.90;;;;;;5113988;27;20036;-80
2023/07/20 08:21:17;;;;;;;0.17;0.17;;;18.10;99.90;;;;;;5080894;28;20094;-81
2023/07/20 08:23:43;;;;;;;0.20;0.20;;;18.00;99.90;;;;;;5084021;28;20052;-81
2023/07/20 08:26:08;;;;;;;0.10;0.10;;;18.10;99.90;;;;;;5081466;28;20036;-81
2023/07/20 08:28:35;;;;;;;0.20;0.20;;;18.10;99.90;;;;;;5109614;27;20076;-80
2023/07/20 08:31:00;;;;;;;0.10;0.10;;;18.10;99.90;;;;;;5077738;28;20048;-80
2023/07/20 08:33:29;;;;;;;0.20;0.20;;;18.20;99.90;;;;;;5075028;28;20075;-80
2023/07/20 08:35:56;;;;;;;0.17;0.17;;;18.30;99.90;;;;;;5076288;28;20036;-80
2023/07/20 08:38:22;;;;;;;0.13;0.13;;;18.30;99.90;;;;;;5077615;28;20040;-81
2023/07/20 08:40:47;;;;;;;0.17;0.17;;;18.40;99.90;;;;;;5082743;28;20089;-81
2023/07/20 08:43:18;;;;;;;0.20;0.20;;;18.50;99.90;;;;;;5080082;28;20058;-79
2023/07/20 08:45:45;;;;;;;0.20;0.20;;;18.50;99.90;;;;;;5076390;28;20036;-81
2023/07/20 08:48:12;;;;;;;0.20;0.20;;;18.50;99.90;;;;;;5071813;28;20045;-81
2023/07/20 08:50:38;;;;;;;0.10;0.10;;;18.50;99.90;;;;;;5077689;28;20046;-81
2023/07/20 08:53:05;;;;;;;0.10;0.10;;;18.50;99.90;;;;;;5076553;28;20093;-81
2023/07/20 08:55:31;;;;;;;0.10;0.10;;;18.60;99.90;;;;;;5085661;28;20396;-80
2023/07/20 08:57:59;;;;;;;0.20;0.20;;;18.60;99.90;;;;;;5075774;28;20046;-80
2023/07/20 09:00:25;;;;;;;0.20;0.20;;;18.60;99.90;;;;;;5107829;27;20032;-80
2023/07/20 09:02:53;;;;;;;0.10;0.10;;;18.60;99.90;;;;;;5081606;28;20042;-80
2023/07/20 09:05:20;;;;;;;0.10;0.10;;;18.60;99.90;;;;;;5077553;28;20048;-81
2023/07/20 09:07:46;;;;;;;0.20;0.20;;;18.50;99.90;;;;;;5112930;27;20049;-82
2023/07/20 09:10:12;;;;;;;0.10;0.10;;;18.50;99.90;;;;;;5087239;28;20039;-81
2023/07/20 09:12:42;;;;;;;0.10;0.10;;;18.60;99.90;;;;;;5075054;28;20059;-81
2023/07/20 09:15:10;;;;;;;0.20;0.20;;;18.70;99.90;;;;;;5073766;28;20051;-79
2023/07/20 09:17:40;;;;;;;0.20;0.20;;;18.80;99.90;;;;;;5076802;28;20048;-81
2023/07/20 09:20:10;;;;;;;0.10;0.10;;;18.90;99.90;;;;;;5076065;28;20091;-80
2023/07/20 09:22:40;;;;;;;0.15;0.15;;;18.90;99.90;;;;;;5091001;28;20152;-80
2023/07/20 09:25:17;;;;;;;0.20;0.20;;;18.90;99.90;;;;;;5092461;28;20028;-80
2023/07/20 09:27:47;;;;;;;0.20;0.20;;;18.90;99.90;;;;;;5083539;28;20066;-81
2023/07/20 09:30:14;;;;;;;0.20;0.20;;;18.90;99.90;;;;;;5088080;28;20046;-80
2023/07/20 09:32:44;;;;;;;0.20;0.20;;;19.00;99.90;;;;;;5083350;28;20462;-81
2023/07/20 09:35:17;;;;;;;0.13;0.13;;;19.10;99.90;;;;;;5081058;28;20583;-80
2023/07/20 09:38:02;;;;;;;0.10;0.10;;;19.20;99.90;;;;;;5077965;28;20051;-80
2023/07/20 09:40:28;;;;;;;0.20;0.20;;;19.20;99.90;;;;;;5117290;28;20040;-80
2023/07/20 09:43:02;;;;;;;0.10;0.10;;;19.20;99.90;;;;;;5074698;28;20032;-81
2023/07/20 09:45:34;;;;;;;0.13;0.13;;;19.20;99.80;;;;;;5077627;28;20062;-81
2023/07/20 09:48:06;;;;;;;0.20;0.20;;;19.10;99.80;;;;;;5082713;28;20483;-81
2023/07/20 09:50:50;;;;;;;0.20;0.20;;;19.20;99.90;;;;;;5082466;28;20047;-81
2023/07/20 09:53:20;;;;;;;0.20;0.20;;;19.30;99.90;;;;;;5085930;28;20131;-79
2023/07/20 09:55:47;;;;;;;0.20;0.20;;;19.40;99.50;;;;;;5078167;28;20177;-79
2023/07/20 09:58:14;;;;;;;0.17;0.17;;;19.40;99.30;;;;;;5086293;28;20062;-80
2023/07/20 10:00:46;;;;;;;0.13;0.13;;;19.40;99.10;;;;;;5076827;28;20039;-80
2023/07/20 10:03:17;;;;;;;0.20;0.20;;;19.40;98.90;;;;;;5075532;28;20123;-82
2023/07/20 10:05:46;;;;;;;;;;;19.30;98.90;;;;;;5077106;28;20040;-80
2023/07/20 10:08:14;;;;;;;0.20;0.20;;;19.30;98.90;;;;;;5075437;28;19935;-79
2023/07/20 10:10:44;;;;;;;0.10;0.10;;;19.20;98.90;;;;;;5077182;28;20080;-81
2023/07/20 10:13:17;;;;;;;0.20;0.20;;;19.30;99.10;;;;;;5083193;28;20078;-81
2023/07/20 10:15:58;;;;;;;0.15;0.15;;;19.40;99.10;;;;;;5083396;28;20089;-81
2023/07/20 10:18:31;;;;;;;;;;;19.50;99.50;;;;;;5083838;28;20036;-81
2023/07/20 10:20:59;;;;;;;0.20;0.20;;;19.70;99.00;;;;;;5081355;28;20007;-94
2023/07/20 10:23:28;;;;;;;0.20;0.20;;;19.80;98.70;;;;;;5080297;28;20044;-82
2023/07/20 10:25:54;;;;;;;0.20;0.20;;;19.70;98.30;;;;;;5078451;28;20055;-81
2023/07/20 10:28:23;;;;;;;0.20;0.20;;;19.70;98.20;;;;;;5075752;28;20500;-82
2023/07/20 10:30:49;;;;;;;0.20;0.20;;;19.80;97.90;;;;;;5078173;28;20040;-81
2023/07/20 10:33:17;;;;;;;0.17;0.17;;;19.70;97.80;;;;;;5085396;28;20097;-81
2023/07/20 10:36:03;;;;;;;0.20;0.20;;;19.90;98.10;;;;;;5086936;28;20040;-80
2023/07/20 10:38:51;;;;;;;0.20;0.20;;;20.00;98.00;;;;;;5093743;27;20149;-81
2023/07/20 10:41:21;;;;;;;0.20;0.20;;;20.00;97.70;;;;;;5078900;28;20106;-81
2023/07/20 10:43:48;;;;;;;0.10;0.10;;;20.00;97.30;;;;;;5075835;28;20032;-82
2023/07/20 10:46:14;;;;;;;0.20;0.20;;;20.00;97.30;;;;;;5073084;28;20450;-81
2023/07/20 10:48:59;;;;;;;0.20;0.20;;;20.10;97.30;;;;;;5081526;28;20032;-81
2023/07/20 10:51:25;;;;;;;0.20;0.20;;;20.20;96.90;;;;;;5124212;27;20063;-81
2023/07/20 10:53:53;;;;;;;0.20;0.20;;;20.20;96.70;;;;;;5099659;28;20063;-80
2023/07/20 10:56:25;;;;;;;0.20;0.20;;;20.30;96.50;;;;;;5113502;27;20115;-82
2023/07/20 10:58:57;;;;;;;0.10;0.10;;;20.30;96.50;;;;;;5077901;28;20029;-81
2023/07/20 11:01:29;;;;;;;0.10;0.10;;;20.30;96.60;;;;;;5075197;28;20045;-81
2023/07/20 11:03:58;;;;;;;0.20;0.20;;;20.30;95.90;;;;;;5077826;28;20122;-81
2023/07/20 11:06:23;;;;;;;0.10;0.10;;;20.40;96.10;;;;;;5084846;28;20142;-81
2023/07/20 11:08:56;;;;;;;0.20;0.20;;;20.50;96.20;;;;;;5078877;28;20144;-83
2023/07/20 11:11:27;;;;;;;0.10;0.10;;;20.60;96.30;;;;;;5087085;28;20040;-81
2023/07/20 11:13:56;;;;;;;;;;;20.60;96.00;;;;;;5090082;28;20052;-81
2023/07/20 11:16:33;;;;;;;0.20;0.20;;;20.70;95.80;;;;;;5090738;28;19926;-81
2023/07/20 11:18:59;;;;;;;0.20;0.20;;;20.80;95.60;;;;;;5071584;28;20055;-82
2023/07/20 11:21:25;;;;;;;0.20;0.20;;;20.90;95.70;;;;;;5070119;28;20041;-81
2023/07/20 11:23:53;;;;;;;0.20;0.20;;;21.00;95.60;;;;;;5108028;27;20445;-81
2023/07/20 11:26:19;;;;;;;0.10;0.10;;;21.10;95.50;;;;;;5084082;28;20044;-82
2023/07/20 11:28:54;;;;;;;0.20;0.20;;;21.30;95.50;;;;;;5105170;27;20033;-81
2023/07/20 11:31:19;;;;;;;0.20;0.20;;;21.40;95.20;;;;;;5104885;28;20148;-81
2023/07/20 11:33:46;;;;;;;0.20;0.20;;;21.30;94.40;;;;;;5087281;28;20119;-82
2023/07/20 11:36:12;;;;;;;0.20;0.20;;;21.20;94.40;;;;;;5086570;28;20519;-82
2023/07/20 11:38:41;;;;;;;0.20;0.20;;;21.20;94.70;;;;;;5118649;27;20050;-82
2023/07/20 11:41:07;;;;;;;0.20;0.20;;;21.30;94.80;;;;;;5114827;27;20032;-82
2023/07/20 11:43:33;;;;;;;0.13;0.13;;;21.40;95.00;;;;;;5099570;27;20572;-82
2023/07/20 11:45:59;;;;;;;0.20;0.20;;;21.50;94.90;;;;;;5077622;28;20078;-82
2023/07/20 11:48:25;;;;;;;0.15;0.15;;;21.60;94.60;;;;;;5071031;28;20052;-82
2023/07/20 11:50:50;;;;;;;0.20;0.20;;;21.70;94.30;;;;;;5118822;27;20047;-82
2023/07/20 11:53:17;;;;;;;0.10;0.10;;;21.90;94.40;;;;;;5115337;27;20044;-82
2023/07/20 11:55:42;;;;;;;0.20;0.20;;;21.90;94.50;;;;;;5124589;27;20500;-87
2023/07/20 11:58:10;;;;;;;0.20;0.20;;;22.00;94.20;;;;;;5085991;28;20036;-82
2023/07/20 12:00:39;;;;;;;0.20;0.20;;;22.10;94.00;;;;;;5082604;28;20071;-82
2023/07/20 12:03:09;;;;;;;0.20;0.20;;;22.30;94.00;;;;;;5085035;28;20076;-82
2023/07/20 12:05:36;;;;;;;0.20;0.20;;;22.40;93.30;;;;;;5097553;28;20092;-82
2023/07/20 12:08:02;;;;;;;0.20;0.20;;;22.50;93.40;;;;;;5077433;28;20044;-83
2023/07/20 12:10:28;;;;;;;0.20;0.20;;;22.60;93.50;;;;;;5077261;28;20040;-83
2023/07/20 12:12:54;;;;;;;0.20;0.20;;;22.70;93.30;;;;;;5084230;28;20463;-82
2023/07/20 12:15:21;;;;;;;0.20;0.20;;;22.70;92.60;;;;;;5072929;28;20048;-82
2023/07/20 12:17:50;;;;;;;0.20;0.20;;;22.70;92.60;;;;;;5082415;28;20039;-81
2023/07/20 12:20:33;;;;;;;0.20;0.20;;;22.60;92.40;;;;;;5079314;28;20060;-83
2023/07/20 12:23:10;;;;;;;0.10;0.10;;;22.50;92.20;;;;;;5075332;28;20080;-82
2023/07/20 12:25:46;;;;;;;0.20;0.20;;;22.50;92.10;;;;;;5077430;28;20063;-81
2023/07/20 12:28:17;;;;;;;0.10;0.10;;;22.30;91.70;;;;;;5081892;28;20052;-82
2023/07/20 12:30:44;;;;;;;0.20;0.20;;;22.20;91.80;;;;;;5120758;27;20051;-81
2023/07/20 12:33:11;;;;;;;0.10;0.10;;;22.20;92.00;;;;;;5082343;28;20036;-83
2023/07/20 12:35:37;;;;;;;0.20;0.20;;;22.10;92.00;;;;;;5106264;27;20043;-82
2023/07/20 12:38:03;;;;;;;0.20;0.20;;;22.20;92.10;;;;;;5115140;27;20406;-82
2023/07/20 12:40:29;;;;;;;0.20;0.20;;;22.20;92.00;;;;;;5116435;27;20041;-82
2023/07/20 12:42:55;;;;;;;0.20;0.20;;;22.20;91.60;;;;;;5071929;28;20054;-82
2023/07/20 12:45:22;;;;;;;0.15;0.15;;;22.10;91.30;;;;;;5075677;28;20145;-82
2023/07/20 12:47:47;;;;;;;0.20;0.20;;;22.00;91.30;;;;;;5106049;28;20059;-82
2023/07/20 12:50:13;;;;;;;0.10;0.10;;;21.80;91.20;;;;;;5088582;28;20070;-82